createdAt,value
2022-12-15T00:00:55.843Z,19.83
2022-12-15T00:04:17.230Z,19.10
2022-12-15T00:07:38.593Z,20.25
2022-12-15T00:10:59.552Z,18.95
2022-12-15T00:14:20.789Z,19.50
2022-12-15T00:17:41.920Z,22.67
2022-12-15T00:21:03.247Z,22.20
2022-12-15T00:24:24.625Z,22.42
2022-12-15T00:27:45.847Z,18.17
2022-12-15T00:31:07.178Z,22.02
2022-12-15T00:34:28.973Z,18.27
2022-12-15T00:37:50.043Z,22.93
2022-12-15T00:40:59.265Z,20.70
2022-12-15T00:44:01.842Z,20.50
2022-12-15T00:47:05.499Z,21.63
2022-12-15T00:50:26.796Z,20.27
2022-12-15T00:53:48.177Z,21.88
2022-12-15T00:57:09.224Z,23.05
2022-12-15T01:00:31.104Z,20.40
2022-12-15T01:03:52.728Z,24.08
2022-12-15T01:07:14.278Z,20.88
2022-12-15T01:10:36.143Z,22.30
2022-12-15T01:13:57.077Z,22.58
2022-12-15T01:17:18.223Z,22.90
2022-12-15T01:20:20.984Z,22.33
2022-12-15T01:23:23.753Z,17.27
2022-12-15T01:26:26.431Z,20.20
2022-12-15T01:29:29.030Z,20.90
2022-12-15T01:32:31.947Z,23.45
2022-12-15T01:35:34.484Z,22.70
2022-12-15T01:38:37.515Z,22.92
2022-12-15T01:41:40.481Z,20.90
2022-12-15T01:44:47.662Z,22.27
2022-12-15T01:47:55.152Z,23.67
2022-12-15T01:51:18.383Z,23.83
2022-12-15T01:54:26.249Z,19.02
2022-12-15T01:57:32.763Z,22.70
2022-12-15T02:00:35.612Z,24.88
2022-12-15T02:03:40.050Z,23.08
2022-12-15T02:06:42.423Z,24.05
2022-12-15T02:09:48.268Z,26.17
2022-12-15T02:13:05.162Z,24.47
2022-12-15T02:16:33.157Z,24.73
2022-12-15T02:19:47.595Z,24.75
2022-12-15T02:23:01.956Z,24.40
2022-12-15T02:26:07.284Z,26.90
2022-12-15T02:29:31.351Z,25.83
2022-12-15T02:33:01.147Z,26.25
2022-12-15T02:36:18.594Z,26.35
2022-12-15T02:39:23.215Z,27.83
2022-12-15T02:42:28.908Z,33.53
2022-12-15T02:45:56.003Z,35.80
2022-12-15T02:49:22.925Z,31.10
2022-12-15T02:53:00.773Z,25.73
2022-12-15T02:56:10.794Z,26.27
2022-12-15T02:59:39.506Z,26.23
2022-12-15T03:02:47.353Z,26.00
2022-12-15T03:05:53.310Z,27.58
2022-12-15T03:08:56.104Z,29.48
2022-12-15T03:11:58.688Z,28.75
2022-12-15T03:15:01.577Z,30.75
2022-12-15T03:18:04.259Z,27.37
2022-12-15T03:21:06.939Z,28.85
2022-12-15T03:24:09.623Z,27.83
2022-12-15T03:27:12.487Z,29.13
2022-12-15T03:30:15.266Z,31.25
2022-12-15T03:33:18.268Z,29.75
2022-12-15T03:36:22.900Z,32.30
2022-12-15T03:39:25.608Z,29.48
2022-12-15T03:42:46.681Z,29.20
2022-12-15T03:45:49.875Z,29.55
2022-12-15T03:48:53.788Z,24.60
2022-12-15T03:51:56.307Z,25.48
2022-12-15T03:54:58.928Z,18.27
2022-12-15T03:58:01.775Z,22.97
2022-12-15T04:01:25.610Z,23.25
2022-12-15T04:04:28.647Z,24.02
2022-12-15T04:07:31.074Z,23.85
2022-12-15T04:10:35.448Z,25.88
2022-12-15T04:13:37.867Z,27.05
2022-12-15T04:16:40.639Z,26.13
2022-12-15T04:20:02.063Z,24.77
2022-12-15T04:23:08.066Z,25.17
2022-12-15T04:26:29.414Z,23.10
2022-12-15T04:29:50.823Z,23.63
2022-12-15T04:33:12.795Z,23.30
2022-12-15T04:36:34.624Z,24.25
2022-12-15T04:40:02.905Z,23.60
2022-12-15T04:43:24.495Z,27.67
2022-12-15T04:46:45.577Z,26.67
2022-12-15T04:50:06.374Z,23.92
2022-12-15T04:53:29.601Z,25.50
2022-12-15T04:56:51.538Z,25.48
2022-12-15T05:00:12.410Z,26.50
2022-12-15T05:03:34.056Z,28.50
2022-12-15T05:06:55.405Z,34.15
2022-12-15T05:10:16.560Z,36.47
2022-12-15T05:13:37.667Z,29.77
2022-12-15T05:16:59.104Z,25.17
2022-12-15T05:20:20.295Z,29.52
2022-12-15T05:23:41.555Z,25.27
2022-12-15T05:27:02.385Z,24.90
2022-12-15T05:30:24.498Z,23.05
2022-12-15T05:33:27.096Z,23.20
2022-12-15T05:36:29.900Z,22.73
2022-12-15T05:39:32.382Z,25.02
2022-12-15T05:42:35.300Z,23.92
2022-12-15T05:45:37.655Z,23.75
2022-12-15T05:48:41.050Z,24.00
2022-12-15T05:51:45.897Z,20.60
2022-12-15T05:54:48.917Z,25.08
2022-12-15T05:57:53.000Z,24.20
2022-12-15T06:00:55.552Z,23.73
2022-12-15T06:03:59.448Z,24.85
2022-12-15T06:07:02.016Z,26.43
2022-12-15T06:10:05.511Z,23.60
2022-12-15T06:13:08.160Z,25.27
2022-12-15T06:16:15.721Z,28.73
2022-12-15T06:19:20.216Z,29.30
2022-12-15T06:22:22.691Z,28.77
2022-12-15T06:25:25.336Z,29.17
2022-12-15T06:28:29.452Z,25.17
2022-12-15T06:31:32.788Z,24.35
2022-12-15T06:34:35.469Z,25.38
2022-12-15T06:37:38.058Z,24.70
2022-12-15T06:40:40.739Z,26.48
2022-12-15T06:43:48.880Z,31.63
2022-12-15T06:46:51.382Z,25.80
2022-12-15T06:49:54.187Z,24.33
2022-12-15T06:52:58.554Z,27.40
2022-12-15T06:56:06.887Z,23.13
2022-12-15T06:59:11.406Z,21.40
2022-12-15T07:02:22.281Z,20.88
2022-12-15T07:05:27.758Z,20.08
2022-12-15T07:08:37.925Z,22.50
2022-12-15T07:11:50.956Z,21.92
2022-12-15T07:15:01.014Z,22.73
2022-12-15T07:18:06.109Z,21.67
2022-12-15T07:21:10.268Z,20.75
2022-12-15T07:24:13.920Z,23.35
2022-12-15T07:27:18.306Z,23.90
2022-12-15T07:30:20.828Z,23.60
2022-12-15T07:33:23.606Z,22.52
2022-12-15T07:36:27.846Z,21.55
2022-12-15T07:39:30.655Z,20.33
2022-12-15T07:42:33.568Z,19.75
2022-12-15T07:45:36.816Z,19.48
2022-12-15T07:48:39.620Z,20.88
2022-12-15T07:51:44.045Z,21.67
2022-12-15T07:54:46.904Z,19.92
2022-12-15T07:57:49.747Z,19.27
2022-12-15T08:00:53.827Z,20.30
2022-12-15T08:03:57.949Z,21.30
2022-12-15T08:07:02.205Z,23.95
2022-12-15T08:10:07.209Z,24.20
2022-12-15T08:13:10.640Z,26.40
2022-12-15T08:16:14.714Z,25.23
2022-12-15T08:19:18.799Z,24.95
2022-12-15T08:22:21.541Z,29.08
2022-12-15T08:25:28.733Z,32.50
2022-12-15T08:28:32.380Z,31.27
2022-12-15T08:31:35.151Z,29.17
2022-12-15T08:34:39.092Z,28.48
2022-12-15T08:37:43.159Z,25.88
2022-12-15T08:40:45.728Z,31.27
2022-12-15T08:43:49.725Z,27.17
2022-12-15T08:46:52.557Z,32.15
2022-12-15T08:49:55.931Z,33.70
2022-12-15T08:53:28.992Z,29.85
2022-12-15T08:56:22.755Z,28.48
2022-12-15T08:59:25.736Z,30.48
2022-12-15T09:02:28.363Z,30.63
2022-12-15T09:05:34.372Z,30.13
2022-12-15T09:08:38.168Z,29.60
2022-12-15T09:11:41.555Z,30.27
2022-12-15T09:14:44.741Z,30.42
2022-12-15T09:17:47.412Z,32.60
2022-12-15T09:20:50.271Z,35.75
2022-12-15T09:23:55.676Z,40.13
2022-12-15T09:26:58.428Z,38.13
2022-12-15T09:30:02.207Z,26.67
2022-12-15T09:33:07.082Z,21.27
2022-12-15T09:36:13.407Z,28.50
2022-12-15T09:39:17.178Z,27.02
2022-12-15T09:42:28.911Z,19.57
2022-12-15T09:45:43.681Z,23.25
2022-12-15T09:48:48.913Z,24.52
2022-12-15T09:52:08.837Z,24.33
2022-12-15T09:55:23.644Z,18.38
2022-12-15T09:58:58.809Z,21.90
2022-12-15T10:02:43.487Z,22.08
2022-12-15T10:06:24.872Z,22.73
2022-12-15T10:09:31.854Z,15.18
2022-12-15T10:12:43.595Z,19.65
2022-12-15T10:16:21.939Z,26.23
2022-12-15T10:19:37.229Z,19.77
2022-12-15T10:22:40.628Z,21.20
2022-12-15T10:25:51.311Z,30.17
2022-12-15T10:29:09.657Z,22.33
2022-12-15T10:32:50.459Z,21.38
2022-12-15T10:35:54.345Z,19.30
2022-12-15T10:38:56.954Z,24.40
2022-12-15T10:42:16.786Z,24.90
2022-12-15T10:45:31.159Z,22.58
2022-12-15T10:48:33.780Z,28.60
2022-12-15T10:51:44.384Z,25.98
2022-12-15T10:54:50.921Z,16.52
2022-12-15T10:58:03.225Z,14.18
2022-12-15T11:01:18.505Z,16.85
2022-12-15T11:04:37.258Z,18.20
2022-12-15T11:07:52.431Z,16.27
2022-12-15T11:11:17.873Z,28.23
2022-12-15T11:14:24.398Z,22.45
2022-12-15T11:17:40.369Z,19.70
2022-12-15T11:21:17.233Z,15.17
2022-12-15T11:24:41.150Z,14.48
2022-12-15T11:27:45.232Z,22.20
2022-12-15T11:30:56.712Z,21.23
2022-12-15T11:33:59.555Z,18.23
2022-12-15T11:37:11.230Z,24.05
2022-12-15T11:40:38.831Z,22.58
2022-12-15T11:44:06.553Z,21.57
2022-12-15T11:47:20.724Z,24.05
2022-12-15T11:50:31.335Z,16.70
2022-12-15T11:53:56.297Z,20.73
2022-12-15T11:57:29.944Z,26.48
2022-12-15T12:00:40.194Z,19.55
2022-12-15T12:03:48.612Z,22.95
2022-12-15T12:07:16.361Z,21.38
2022-12-15T12:10:45.699Z,24.15
2022-12-15T12:14:19.066Z,27.88
2022-12-15T12:17:45.705Z,23.00
2022-12-15T12:21:00.250Z,28.38
2022-12-15T12:24:52.472Z,20.70
2022-12-15T12:27:55.264Z,28.53
2022-12-15T12:31:01.916Z,24.80
2022-12-15T12:34:15.835Z,26.05
2022-12-15T12:37:36.964Z,28.20
2022-12-15T12:41:00.828Z,29.55
2022-12-15T12:44:38.716Z,34.08
2022-12-15T12:47:47.499Z,11.57
2022-12-15T12:50:51.946Z,23.67
2022-12-15T12:53:55.763Z,34.47
2022-12-15T12:56:59.034Z,33.47
2022-12-15T13:00:13.504Z,21.67
2022-12-15T13:03:20.241Z,28.63
2022-12-15T13:06:43.023Z,29.80
2022-12-15T13:10:02.882Z,26.45
2022-12-15T13:13:31.691Z,33.22
2022-12-15T13:16:40.169Z,30.55
2022-12-15T13:20:01.488Z,32.17
2022-12-15T13:23:19.412Z,37.07
2022-12-15T13:26:22.080Z,36.05
2022-12-15T13:29:24.568Z,22.60
2022-12-15T13:32:37.523Z,25.93
2022-12-15T13:35:42.503Z,25.75
2022-12-15T13:38:54.365Z,24.60
2022-12-15T13:46:06.086Z,25.00
2022-12-15T13:49:16.346Z,44.17
2022-12-15T13:53:16.541Z,38.60
2022-12-15T13:56:04.102Z,46.90
2022-12-15T13:59:21.058Z,50.20
2022-12-15T14:02:23.496Z,45.67
2022-12-15T14:05:27.137Z,38.90
2022-12-15T14:08:31.043Z,33.88
2022-12-15T14:11:52.892Z,35.53
2022-12-15T14:14:56.428Z,37.08
2022-12-15T14:18:01.855Z,36.92
2022-12-15T14:21:22.402Z,39.35
2022-12-15T14:24:39.682Z,38.83
2022-12-15T14:27:42.977Z,37.50
2022-12-15T14:30:45.799Z,37.17
2022-12-15T14:34:33.299Z,35.72
2022-12-15T14:37:35.987Z,30.67
2022-12-15T14:40:40.833Z,34.90
2022-12-15T14:43:43.506Z,33.70
2022-12-15T14:46:48.177Z,33.63
2022-12-15T14:49:51.551Z,30.48
2022-12-15T14:53:02.318Z,35.85
2022-12-15T14:56:15.520Z,43.78
2022-12-15T14:59:20.233Z,42.57
2022-12-15T15:02:27.771Z,48.58
2022-12-15T15:05:33.180Z,41.22
2022-12-15T15:08:43.401Z,39.43
2022-12-15T15:11:50.012Z,36.72
2022-12-15T15:15:04.819Z,41.25
2022-12-15T15:18:13.723Z,48.83
2022-12-15T15:21:21.114Z,47.28
2022-12-15T15:24:29.703Z,51.72
2022-12-15T15:27:38.641Z,45.92
2022-12-15T15:30:42.563Z,53.17
2022-12-15T15:33:45.383Z,37.95
2022-12-15T15:36:47.884Z,31.13
2022-12-15T15:39:52.516Z,28.77
2022-12-15T15:42:55.609Z,28.35
2022-12-15T15:46:02.978Z,29.17
2022-12-15T15:49:08.835Z,27.05
2022-12-15T15:52:13.472Z,25.65
2022-12-15T15:55:24.717Z,25.63
2022-12-15T15:58:27.798Z,24.13
2022-12-15T16:01:30.442Z,32.27
2022-12-15T16:04:33.323Z,43.88
2022-12-15T16:07:36.163Z,34.60
2022-12-15T16:10:38.803Z,29.53
2022-12-15T16:13:46.576Z,29.65
2022-12-15T16:16:49.472Z,31.80
2022-12-15T16:19:51.921Z,33.03
2022-12-15T16:22:59.179Z,30.35
2022-12-15T16:26:01.843Z,35.20
2022-12-15T16:29:17.009Z,34.00
2022-12-15T16:32:19.711Z,35.63
2022-12-15T16:35:26.432Z,37.65
2022-12-15T16:38:31.705Z,40.50
2022-12-15T16:41:34.695Z,38.27
2022-12-15T16:44:37.418Z,43.72
2022-12-15T16:47:40.855Z,37.63
2022-12-15T16:50:47.135Z,34.60
2022-12-15T16:53:49.761Z,31.38
2022-12-15T16:56:54.156Z,31.88
2022-12-15T16:59:56.912Z,35.67
2022-12-15T17:03:00.127Z,35.40
2022-12-15T17:06:07.043Z,35.72
2022-12-15T17:09:17.580Z,36.55
2022-12-15T17:12:20.368Z,40.37
2022-12-15T17:15:26.442Z,38.33
2022-12-15T17:18:30.088Z,37.90
2022-12-15T17:21:35.355Z,31.85
2022-12-15T17:24:38.241Z,32.13
2022-12-15T17:27:40.854Z,35.35
2022-12-15T17:30:44.491Z,37.50
2022-12-15T17:33:48.132Z,37.17
2022-12-15T17:36:51.552Z,44.25
2022-12-15T17:39:54.869Z,34.17
2022-12-15T17:42:57.728Z,34.67
2022-12-15T17:46:00.476Z,34.05
2022-12-15T17:49:03.605Z,36.70
2022-12-15T17:52:27.913Z,32.70
2022-12-15T17:55:34.978Z,33.67
2022-12-15T17:58:38.036Z,32.42
2022-12-15T18:01:43.385Z,35.13
2022-12-15T18:04:46.008Z,30.90
2022-12-15T18:07:52.704Z,27.35
2022-12-15T18:10:57.527Z,28.98
2022-12-15T18:14:00.694Z,28.67
2022-12-15T18:17:03.191Z,26.85
2022-12-15T18:20:07.836Z,28.88
2022-12-15T18:23:20.304Z,30.80
2022-12-15T18:26:23.340Z,35.45
2022-12-15T18:29:25.879Z,36.53
2022-12-15T18:32:30.111Z,37.60
2022-12-15T18:35:40.066Z,38.47
2022-12-15T18:38:43.228Z,42.35
2022-12-15T18:41:46.607Z,35.83
2022-12-15T18:44:52.059Z,44.00
2022-12-15T18:47:54.876Z,42.53
2022-12-15T18:50:59.483Z,40.50
2022-12-15T18:54:02.283Z,35.55
2022-12-15T18:57:21.080Z,30.15
2022-12-15T19:00:27.897Z,33.05
2022-12-15T19:03:31.965Z,37.08
2022-12-15T19:06:40.463Z,33.43
2022-12-15T19:09:43.348Z,31.73
2022-12-15T19:12:46.123Z,26.27
2022-12-15T19:15:48.975Z,27.83
2022-12-15T19:19:16.946Z,26.15
2022-12-15T19:22:30.107Z,26.52
2022-12-15T19:25:33.020Z,25.00
2022-12-15T19:28:36.148Z,26.38
2022-12-15T19:31:38.813Z,26.83
2022-12-15T19:34:41.639Z,26.02
2022-12-15T19:37:45.443Z,25.70
2022-12-15T19:40:49.391Z,26.42
2022-12-15T19:43:52.060Z,24.98
2022-12-15T19:46:55.016Z,24.23
2022-12-15T19:49:57.943Z,23.60
2022-12-15T19:53:03.278Z,24.02
2022-12-15T19:56:07.491Z,23.05
2022-12-15T19:59:27.010Z,23.55
2022-12-15T20:02:29.992Z,28.27
2022-12-15T20:05:33.287Z,24.95
2022-12-15T20:08:38.753Z,21.57
2022-12-15T20:11:41.906Z,19.80
2022-12-15T20:14:45.438Z,19.20
2022-12-15T20:17:49.156Z,19.03
2022-12-15T20:20:52.057Z,19.50
2022-12-15T20:24:02.348Z,18.88
2022-12-15T20:27:11.888Z,18.08
2022-12-15T20:30:27.611Z,17.45
2022-12-15T20:33:30.324Z,20.10
2022-12-15T20:36:33.786Z,20.08
2022-12-15T20:39:37.935Z,18.47
2022-12-15T20:42:40.607Z,17.45
2022-12-15T20:45:45.145Z,16.38
2022-12-15T20:48:50.750Z,20.33
2022-12-15T20:51:53.484Z,24.67
2022-12-15T20:54:56.556Z,21.95
2022-12-15T20:57:59.352Z,22.10
2022-12-15T21:01:02.187Z,32.35
2022-12-15T21:04:25.841Z,32.78
2022-12-15T21:07:28.640Z,27.40
2022-12-15T21:10:31.366Z,27.23
2022-12-15T21:13:35.639Z,31.63
2022-12-15T21:16:38.589Z,33.15
2022-12-15T21:19:42.008Z,31.73
2022-12-15T21:22:44.852Z,31.73
2022-12-15T21:25:48.243Z,31.02
2022-12-15T21:28:55.604Z,32.40
2022-12-15T21:31:58.317Z,36.75
2022-12-15T21:35:00.708Z,37.90
2022-12-15T21:38:04.627Z,38.40
2022-12-15T21:41:12.667Z,36.60
2022-12-15T21:44:15.967Z,38.90
2022-12-15T21:47:52.110Z,42.33
2022-12-15T21:50:54.835Z,38.50
2022-12-15T21:53:57.479Z,41.92
2022-12-15T21:57:01.344Z,44.97
2022-12-15T22:00:10.758Z,41.53
2022-12-15T22:03:14.852Z,38.72
2022-12-15T22:06:24.779Z,37.35
2022-12-15T22:09:27.764Z,35.92
2022-12-15T22:12:30.342Z,38.40
2022-12-15T22:15:32.986Z,38.75
2022-12-15T22:18:36.326Z,34.05
2022-12-15T22:21:39.238Z,35.73
2022-12-15T22:24:41.808Z,34.65
2022-12-15T22:27:45.532Z,33.83
2022-12-15T22:30:51.239Z,35.13
2022-12-15T22:33:54.709Z,33.88
2022-12-15T22:36:57.659Z,35.08
2022-12-15T22:40:00.656Z,38.40
2022-12-15T22:43:18.235Z,37.73
2022-12-15T22:46:24.021Z,29.83
2022-12-15T22:49:31.530Z,32.85
2022-12-15T22:52:34.304Z,29.70
2022-12-15T22:55:37.242Z,29.00
2022-12-15T22:58:45.584Z,29.05
2022-12-15T23:01:48.386Z,33.08
2022-12-15T23:04:51.354Z,30.02
2022-12-15T23:07:54.566Z,30.50
2022-12-15T23:11:17.948Z,37.03
2022-12-15T23:14:40.256Z,35.27
2022-12-15T23:17:43.096Z,34.05
2022-12-15T23:20:45.618Z,32.40
2022-12-15T23:23:48.606Z,33.93
2022-12-15T23:26:51.087Z,34.35
2022-12-15T23:29:54.496Z,32.28
2022-12-15T23:32:57.412Z,30.58
2022-12-15T23:36:01.242Z,29.08
2022-12-15T23:39:03.799Z,30.42
2022-12-15T23:42:06.871Z,29.50
2022-12-15T23:45:09.902Z,25.83
2022-12-15T23:48:13.828Z,28.45
2022-12-15T23:51:19.308Z,26.70
2022-12-15T23:54:21.975Z,26.93
2022-12-15T23:57:24.790Z,29.15
